Alta Hourly Wx Roundup
ALTA 10/20/2017
click here for graph
Temp / RH Sensor out @ 8,550 ft site.
        DATE  TIME Temp F Total   h2o Temp F Temp F  RH %  RH % W_Spd W_Dir W_Gust W_Spd W_Dir W_Gust   h2o  BATT
                      9664  9664  9664    8550   10500  8550 10500  8550  8550   8550 10500 10500  10500  8550 10500
                       AVG Depth [1HR]     AVG     AVG   AVG   AVG   AVG   AVG    MAX   AVG   AVG    MAX (1HR)   AVG

  10/20/2017 22:00      20  11.4  0.00      26      17    86    88     8   265     25    26   360     45  0.00 12.98
  10/20/2017 21:00      21  12.0  0.00      27      17    89    86     5   267     18    22   360     38  0.00 12.98
  10/20/2017 20:00      21  11.8  0.00      27      17    91    91     6   256     19    22   360     46  0.00 12.98
  10/20/2017 19:00      22  11.9  0.00      27      18    92    92     7   258     22    16   360     35  0.00 12.97
  10/20/2017 18:00      23  12.1  0.00      28      19    95    94     9   265     21    21   360     36  0.00 12.98
  10/20/2017 17:00      24  10.4  0.07      29      20    96    95     9   262     21    18   360     33  0.00 12.98
  10/20/2017 16:00      26  10.0  0.06      29      21    96    96    11   261     22    19   360     29  0.00 12.98
  10/20/2017 15:00      29   8.6  0.04      32      23    92    97    10   257     22    18   360     29  0.00 12.98
  10/20/2017 14:00      31   9.6  0.00      36      26    77    97     7   249     22    15   360     25  0.00 12.98
  10/20/2017 13:00      39   9.5  0.00      47      34    49    65    12   251     37    19   360     37  0.00 12.97
  10/20/2017 12:00      40   9.9  0.00      50      36    42    56     6   183     27    18   360     44  0.00 12.98
  10/20/2017 11:00      40  10.1  0.00      49      37    41    53     7   130     23    20   360     57  0.00 12.98
  10/20/2017 10:00      40  10.3  0.00      48      38    41    50     8   143     29    21   360     60  0.00 12.98
  10/20/2017 09:00      40  10.4  0.00      48      37    40    51     7   154     24    20   360     55  0.00 12.99
  10/20/2017 08:00      40  10.3  0.00      48      37    42    53     6   123     24    17   360     59  0.00 12.99
  10/20/2017 07:00      40  10.5  0.00      48      37    42    53     5   134     18    20   360     43  0.00 12.99
  10/20/2017 06:00      41  10.4  0.00      48      38    45    57     4   139     17    13   360     36  0.00 12.99
  10/20/2017 05:00      42  10.3  0.00      49      38    48    61     7   150     21    29   360     57  0.00 12.98
  10/20/2017 04:00      41  10.4  0.00      48      39    55    64     5   228     19    31   360     55  0.00 12.98
  10/20/2017 03:00      42  10.3  0.00      50      40    53    66     5   197     28    23   360     50  0.00 12.98
  10/20/2017 02:00      43  10.3  0.00      49      40    55    66     5   174     16    21   360     43  0.00 12.99
  10/20/2017 01:00      43  10.3  0.00      44      40    67    67     2   149     10    19   360     44  0.00 12.99
  10/19/2017 24:00      43  10.6  0.00      43      40    69    69     2   178      6     9   360     27  0.00 12.99
  10/19/2017 23:00      42  10.5  0.00      45      40    65    68     3   169     10     9   360     28  0.00 13.00


click here for graph